createdAt,value
2022-12-03T00:00:50.957Z,79.35
2022-12-03T00:01:50.966Z,79.31
2022-12-03T00:02:51.036Z,79.31
2022-12-03T00:03:51.080Z,79.14
2022-12-03T00:04:51.355Z,79.21
2022-12-03T00:05:50.911Z,79.21
2022-12-03T00:06:50.981Z,79.31
2022-12-03T00:07:50.963Z,78.79
2022-12-03T00:08:50.876Z,78.69
2022-12-03T00:09:50.860Z,78.69
2022-12-03T00:10:50.875Z,78.69
2022-12-03T00:11:50.850Z,78.83
2022-12-03T00:12:50.841Z,79.24
2022-12-03T00:13:50.818Z,78.83
2022-12-03T00:14:50.841Z,79.24
2022-12-03T00:15:51.250Z,78.79
2022-12-03T00:16:50.797Z,79.10
2022-12-03T00:17:50.774Z,78.41
2022-12-03T00:18:50.797Z,79.00
2022-12-03T00:19:50.772Z,79.21
2022-12-03T00:20:50.774Z,78.58
2022-12-03T00:21:50.731Z,78.93
2022-12-03T00:22:50.730Z,78.72
2022-12-03T00:23:50.710Z,79.03
2022-12-03T00:24:50.853Z,79.10
2022-12-03T00:25:50.688Z,78.52
2022-12-03T00:26:50.763Z,78.93
2022-12-03T00:27:50.672Z,78.72
2022-12-03T00:28:50.671Z,79.03
2022-12-03T00:29:50.645Z,79.03
2022-12-03T00:30:50.681Z,79.03
2022-12-03T00:31:50.632Z,78.69
2022-12-03T00:32:50.675Z,78.79
2022-12-03T00:33:50.611Z,78.41
2022-12-03T00:34:50.743Z,78.93
2022-12-03T00:35:50.672Z,79.03
2022-12-03T00:36:50.578Z,79.14
2022-12-03T00:37:50.598Z,79.10
2022-12-03T00:38:50.600Z,78.27
2022-12-03T00:39:50.550Z,78.72
2022-12-03T00:40:50.542Z,78.86
2022-12-03T00:41:50.566Z,79.03
2022-12-03T00:42:50.538Z,78.72
2022-12-03T00:43:50.508Z,79.14
2022-12-03T00:44:50.794Z,79.21
2022-12-03T00:45:50.483Z,79.10
2022-12-03T00:46:50.491Z,78.86
2022-12-03T00:47:50.483Z,78.48
2022-12-03T00:48:50.444Z,78.27
2022-12-03T00:49:50.504Z,77.65
2022-12-03T00:50:50.448Z,78.52
2022-12-03T00:51:50.438Z,78.62
2022-12-03T00:52:50.427Z,78.41
2022-12-03T00:53:50.433Z,78.10
2022-12-03T00:54:50.603Z,78.52
2022-12-03T00:55:50.372Z,78.55
2022-12-03T00:56:50.386Z,78.86
2022-12-03T00:57:50.347Z,79.14
2022-12-03T00:58:50.332Z,78.41
2022-12-03T00:59:50.344Z,78.72
2022-12-03T01:00:50.318Z,79.14
2022-12-03T01:01:50.345Z,78.58
2022-12-03T01:02:50.296Z,77.89
2022-12-03T01:03:50.338Z,78.58
2022-12-03T01:04:50.532Z,78.20
2022-12-03T01:05:50.259Z,78.20
2022-12-03T01:06:50.257Z,78.52
2022-12-03T01:07:50.311Z,78.62
2022-12-03T01:08:50.233Z,78.34
2022-12-03T01:09:50.239Z,79.17
2022-12-03T01:10:50.249Z,79.17
2022-12-03T01:11:50.196Z,79.17
2022-12-03T01:12:50.214Z,79.28
2022-12-03T01:13:50.179Z,79.21
2022-12-03T01:14:50.323Z,79.49
2022-12-03T01:15:50.217Z,79.38
2022-12-03T01:16:50.174Z,79.80
2022-12-03T01:17:50.132Z,79.35
2022-12-03T01:18:50.161Z,79.14
2022-12-03T01:19:50.151Z,79.24
2022-12-03T01:20:50.123Z,78.93
2022-12-03T01:21:50.107Z,79.03
2022-12-03T01:22:50.103Z,79.03
2022-12-03T01:23:50.081Z,79.38
2022-12-03T01:24:50.305Z,78.97
2022-12-03T01:25:50.060Z,79.07
2022-12-03T01:26:50.036Z,78.97
2022-12-03T01:27:50.035Z,79.07
2022-12-03T01:28:50.011Z,79.17
2022-12-03T01:29:50.028Z,79.07
2022-12-03T01:30:50.115Z,79.07
2022-12-03T01:31:50.047Z,78.55
2022-12-03T01:32:49.977Z,78.41
2022-12-03T01:33:49.992Z,79.10
2022-12-03T01:34:50.179Z,78.72
2022-12-03T01:35:49.961Z,78.58
2022-12-03T01:36:50.078Z,78.58
2022-12-03T01:37:49.999Z,78.69
2022-12-03T01:38:49.903Z,78.00
2022-12-03T01:39:49.924Z,78.41
2022-12-03T01:40:49.899Z,78.00
2022-12-03T01:41:49.879Z,78.34
2022-12-03T01:42:49.885Z,78.83
2022-12-03T01:43:49.850Z,78.34
2022-12-03T01:44:50.029Z,78.62
2022-12-03T01:45:49.826Z,78.34
2022-12-03T01:46:49.859Z,78.55
2022-12-03T01:47:49.850Z,79.17
2022-12-03T01:48:49.796Z,79.24
2022-12-03T01:49:49.800Z,78.76
2022-12-03T01:50:49.919Z,78.00
2022-12-03T01:51:49.793Z,78.76
2022-12-03T01:52:49.752Z,78.72
2022-12-03T01:53:49.742Z,78.24
2022-12-03T01:54:49.825Z,78.45
2022-12-03T01:55:49.737Z,78.17
2022-12-03T01:56:49.740Z,79.28
2022-12-03T01:57:49.720Z,78.90
2022-12-03T01:58:49.689Z,79.07
2022-12-03T01:59:49.680Z,79.28
2022-12-03T02:00:49.699Z,79.28
2022-12-03T02:01:49.747Z,78.97
2022-12-03T02:02:49.688Z,79.07
2022-12-03T02:03:49.696Z,79.07
2022-12-03T02:04:49.624Z,78.55
2022-12-03T02:05:49.613Z,78.66
2022-12-03T02:06:49.633Z,78.76
2022-12-03T02:07:49.720Z,78.66
2022-12-03T02:08:49.613Z,78.76
2022-12-03T02:09:49.568Z,78.83
2022-12-03T02:10:49.557Z,78.66
2022-12-03T02:11:50.651Z,78.31
2022-12-03T02:12:49.569Z,78.20
2022-12-03T02:13:49.531Z,77.69
2022-12-03T02:14:49.574Z,77.89
2022-12-03T02:15:49.547Z,77.79
2022-12-03T02:16:49.512Z,78.24
2022-12-03T02:17:49.506Z,78.31
2022-12-03T02:18:49.474Z,78.31
2022-12-03T02:19:49.469Z,77.58
2022-12-03T02:20:49.475Z,77.27
2022-12-03T02:21:49.438Z,77.16
2022-12-03T02:22:49.457Z,77.16
2022-12-03T02:23:49.436Z,77.30
2022-12-03T02:24:49.406Z,77.48
2022-12-03T02:25:49.401Z,77.75
2022-12-03T02:26:49.386Z,78.59
2022-12-03T02:27:49.391Z,78.38
2022-12-03T02:28:49.429Z,78.55
2022-12-03T02:29:49.352Z,78.45
2022-12-03T02:30:49.345Z,78.55
2022-12-03T02:31:49.422Z,78.66
2022-12-03T02:32:49.325Z,78.34
2022-12-03T02:33:49.346Z,78.24
2022-12-03T02:34:49.307Z,78.20
2022-12-03T02:35:49.287Z,78.00
2022-12-03T02:36:49.283Z,78.20
2022-12-03T02:37:49.270Z,77.58
2022-12-03T02:38:49.280Z,77.79
2022-12-03T02:39:49.285Z,77.69
2022-12-03T02:40:49.257Z,77.27
2022-12-03T02:41:49.221Z,77.79
2022-12-03T02:42:49.219Z,77.48
2022-12-03T02:43:49.218Z,77.89
2022-12-03T02:44:49.224Z,77.79
2022-12-03T02:45:49.180Z,77.79
2022-12-03T02:46:49.216Z,77.27
2022-12-03T02:47:49.158Z,78.10
2022-12-03T02:48:49.149Z,78.00
2022-12-03T02:49:49.174Z,77.89
2022-12-03T02:50:49.128Z,77.30
2022-12-03T02:51:49.114Z,77.58
2022-12-03T02:52:49.133Z,77.51
2022-12-03T02:53:49.460Z,77.51
2022-12-03T02:54:49.086Z,78.14
2022-12-03T02:55:49.082Z,77.61
2022-12-03T02:56:49.086Z,78.55
2022-12-03T02:57:49.052Z,78.55
2022-12-03T02:58:49.068Z,78.14
2022-12-03T02:59:49.056Z,78.24
2022-12-03T03:00:49.033Z,78.76
2022-12-03T03:01:49.087Z,78.86
2022-12-03T03:02:49.159Z,78.24
2022-12-03T03:03:49.007Z,78.20
2022-12-03T03:04:48.981Z,77.93
2022-12-03T03:05:48.981Z,78.34
2022-12-03T03:06:48.959Z,78.14
2022-12-03T03:07:49.019Z,78.62
2022-12-03T03:08:49.002Z,77.69
2022-12-03T03:09:48.921Z,77.93
2022-12-03T03:10:48.930Z,78.31
2022-12-03T03:11:48.898Z,78.41
2022-12-03T03:12:48.899Z,78.20
2022-12-03T03:13:49.043Z,78.00
2022-12-03T03:14:48.901Z,77.55
2022-12-03T03:15:48.880Z,77.65
2022-12-03T03:16:48.940Z,77.65
2022-12-03T03:17:48.839Z,77.27
2022-12-03T03:18:48.853Z,77.27
2022-12-03T03:19:48.843Z,77.58
2022-12-03T03:20:48.803Z,77.48
2022-12-03T03:21:48.814Z,77.27
2022-12-03T03:22:48.793Z,77.37
2022-12-03T03:23:48.795Z,77.16
2022-12-03T03:24:48.771Z,77.20
2022-12-03T03:25:48.778Z,77.58
2022-12-03T03:26:48.785Z,78.03
2022-12-03T03:27:48.728Z,77.93
2022-12-03T03:28:48.801Z,78.03
2022-12-03T03:29:48.720Z,78.03
2022-12-03T03:30:48.704Z,78.86
2022-12-03T03:31:48.832Z,78.76
2022-12-03T03:32:48.678Z,78.34
2022-12-03T03:33:48.665Z,78.41
2022-12-03T03:34:48.689Z,78.20
2022-12-03T03:35:48.641Z,77.58
2022-12-03T03:36:48.653Z,78.00
2022-12-03T03:37:48.641Z,77.27
2022-12-03T03:38:48.651Z,77.20
2022-12-03T03:39:48.655Z,77.40
2022-12-03T03:40:48.603Z,78.20
2022-12-03T03:41:48.579Z,77.58
2022-12-03T03:42:48.596Z,77.48
2022-12-03T03:43:48.580Z,77.48
2022-12-03T03:44:48.545Z,77.51
2022-12-03T03:45:48.587Z,77.96
2022-12-03T03:46:48.571Z,78.17
2022-12-03T03:47:48.532Z,78.59
2022-12-03T03:48:48.513Z,79.07
2022-12-03T03:49:48.660Z,78.76
2022-12-03T03:50:48.480Z,79.28
2022-12-03T03:51:48.471Z,78.86
2022-12-03T03:52:48.472Z,78.52
2022-12-03T03:53:48.466Z,78.10
2022-12-03T03:54:48.458Z,77.89
2022-12-03T03:55:48.430Z,77.79
2022-12-03T03:56:48.435Z,77.69
2022-12-03T03:57:48.418Z,77.30
2022-12-03T03:58:48.419Z,77.93
2022-12-03T03:59:48.391Z,78.28
2022-12-03T04:00:48.430Z,77.96
2022-12-03T04:01:48.475Z,78.38
2022-12-03T04:02:48.356Z,78.45
2022-12-03T04:03:48.469Z,78.45
2022-12-03T04:04:48.384Z,78.55
2022-12-03T04:05:48.338Z,78.34
2022-12-03T04:06:48.331Z,78.38
2022-12-03T04:07:48.428Z,78.69
2022-12-03T04:08:48.313Z,79.11
2022-12-03T04:09:48.288Z,78.90
2022-12-03T04:10:48.265Z,79.04
2022-12-03T04:11:48.301Z,78.69
2022-12-03T04:12:48.258Z,78.90
2022-12-03T04:13:48.232Z,79.11
2022-12-03T04:14:48.245Z,79.00
2022-12-03T04:15:48.223Z,78.83
2022-12-03T04:16:48.275Z,79.21
2022-12-03T04:17:48.224Z,79.21
2022-12-03T04:18:48.193Z,78.49
2022-12-03T04:19:48.204Z,78.94
2022-12-03T04:20:48.240Z,79.25
2022-12-03T04:21:48.148Z,79.14
2022-12-03T04:22:48.140Z,78.94
2022-12-03T04:23:48.333Z,79.25
2022-12-03T04:24:48.145Z,79.14
2022-12-03T04:25:48.106Z,79.00
2022-12-03T04:26:48.119Z,78.52
2022-12-03T04:27:48.082Z,78.94
2022-12-03T04:28:48.077Z,79.25
2022-12-03T04:29:48.102Z,79.04
2022-12-03T04:30:48.229Z,79.28
2022-12-03T04:31:48.046Z,79.66
2022-12-03T04:32:48.045Z,79.04
2022-12-03T04:33:48.016Z,79.32
2022-12-03T04:34:48.005Z,78.94
2022-12-03T04:35:48.109Z,79.00
2022-12-03T04:36:48.018Z,78.69
2022-12-03T04:37:47.971Z,78.38
2022-12-03T04:38:47.976Z,78.52
2022-12-03T04:39:48.161Z,78.28
2022-12-03T04:40:47.971Z,78.69
2022-12-03T04:41:47.991Z,78.49
2022-12-03T04:42:47.922Z,78.28
2022-12-03T04:43:47.954Z,77.75
2022-12-03T04:44:47.901Z,78.38
2022-12-03T04:45:47.958Z,78.49
2022-12-03T04:46:47.931Z,78.38
2022-12-03T04:47:47.872Z,78.90
2022-12-03T04:48:47.858Z,78.38
2022-12-03T04:49:48.052Z,78.49
2022-12-03T04:50:47.850Z,78.59
2022-12-03T04:51:47.836Z,78.59
2022-12-03T04:52:47.832Z,77.86
2022-12-03T04:53:47.826Z,78.07
2022-12-03T04:54:47.799Z,77.72
2022-12-03T04:55:47.786Z,77.72
2022-12-03T04:56:47.783Z,77.72
2022-12-03T04:57:47.798Z,77.09
2022-12-03T04:58:47.766Z,77.34
2022-12-03T04:59:47.764Z,77.51
2022-12-03T05:00:47.726Z,77.13
2022-12-03T05:01:47.777Z,77.75
2022-12-03T05:02:47.819Z,77.79
2022-12-03T05:03:47.705Z,78.00
2022-12-03T05:04:47.683Z,78.20
2022-12-03T05:05:47.668Z,78.31
2022-12-03T05:06:47.693Z,77.96
2022-12-03T05:07:47.713Z,78.49
2022-12-03T05:08:47.660Z,78.07
2022-12-03T05:09:47.640Z,78.49
2022-12-03T05:10:47.686Z,77.69
2022-12-03T05:11:47.642Z,78.07
2022-12-03T05:12:47.607Z,78.07
2022-12-03T05:13:47.596Z,77.86
2022-12-03T05:14:47.598Z,77.75
2022-12-03T05:15:47.587Z,77.65
2022-12-03T05:16:47.662Z,77.89
2022-12-03T05:17:47.541Z,77.86
2022-12-03T05:18:47.534Z,78.07
2022-12-03T05:19:47.523Z,78.49
2022-12-03T05:20:53.213Z,77.44
2022-12-03T05:21:47.915Z,77.23
2022-12-03T05:22:47.504Z,77.72
2022-12-03T05:23:47.503Z,77.83
2022-12-03T05:24:47.475Z,78.20
2022-12-03T05:25:47.455Z,78.42
2022-12-03T05:26:47.476Z,78.59
2022-12-03T05:27:47.468Z,77.79
2022-12-03T05:28:47.441Z,78.52
2022-12-03T05:29:47.407Z,77.75
2022-12-03T05:30:47.493Z,78.17
2022-12-03T05:31:47.400Z,77.86
2022-12-03T05:32:47.410Z,77.89
2022-12-03T05:33:47.412Z,78.45
2022-12-03T05:34:47.364Z,78.77
2022-12-03T05:35:47.343Z,78.87
2022-12-03T05:36:47.337Z,79.28
2022-12-03T05:37:47.330Z,78.45
2022-12-03T05:38:47.335Z,79.28
2022-12-03T05:39:47.335Z,78.94
2022-12-03T05:40:47.306Z,79.04
2022-12-03T05:41:47.309Z,78.83
2022-12-03T05:42:47.289Z,79.35
2022-12-03T05:43:47.268Z,79.35
2022-12-03T05:44:47.246Z,78.49
2022-12-03T05:45:47.269Z,78.28
2022-12-03T05:46:47.261Z,78.42
2022-12-03T05:47:47.268Z,78.83
2022-12-03T05:48:47.253Z,78.77
2022-12-03T05:49:47.193Z,79.18
2022-12-03T05:50:47.181Z,79.60
2022-12-03T05:51:47.189Z,78.90
2022-12-03T05:52:47.190Z,79.32
2022-12-03T05:53:47.194Z,79.04
2022-12-03T05:54:47.189Z,79.11
2022-12-03T05:55:47.144Z,78.49
2022-12-03T05:56:47.142Z,78.42
2022-12-03T05:57:47.118Z,78.69
2022-12-03T05:58:47.097Z,78.69
2022-12-03T05:59:47.126Z,78.90
2022-12-03T06:00:47.079Z,77.65
2022-12-03T06:01:47.069Z,78.49
2022-12-03T06:02:47.189Z,77.93
2022-12-03T06:03:47.295Z,77.55
2022-12-03T06:04:47.067Z,77.96
2022-12-03T06:05:47.016Z,77.83
2022-12-03T06:06:47.026Z,77.96
2022-12-03T06:07:47.055Z,77.72
2022-12-03T06:08:46.995Z,77.69
2022-12-03T06:09:47.006Z,78.63
2022-12-03T06:10:46.962Z,78.80
2022-12-03T06:11:46.973Z,78.49
2022-12-03T06:12:46.948Z,78.31
2022-12-03T06:13:46.930Z,78.63
2022-12-03T06:14:46.948Z,78.17
2022-12-03T06:15:47.020Z,78.59
2022-12-03T06:16:46.942Z,78.38
2022-12-03T06:17:46.905Z,77.86
2022-12-03T06:18:46.896Z,77.89
2022-12-03T06:19:46.867Z,77.69
2022-12-03T06:20:46.892Z,78.52
2022-12-03T06:21:46.919Z,78.38
2022-12-03T06:22:46.832Z,78.38
2022-12-03T06:23:46.854Z,78.49
2022-12-03T06:24:46.821Z,78.80
2022-12-03T06:25:46.806Z,78.38
2022-12-03T06:26:46.808Z,78.34
2022-12-03T06:27:46.827Z,78.03
2022-12-03T06:28:46.772Z,77.34
2022-12-03T06:29:46.807Z,78.07
2022-12-03T06:30:46.800Z,77.75
2022-12-03T06:31:46.811Z,78.07
2022-12-03T06:32:46.731Z,77.96
2022-12-03T06:33:46.745Z,77.83
2022-12-03T06:34:46.707Z,77.96
2022-12-03T06:35:46.730Z,77.86
2022-12-03T06:36:46.697Z,77.89
2022-12-03T06:37:46.672Z,78.42
2022-12-03T06:38:46.663Z,78.42
2022-12-03T06:39:46.681Z,78.49
2022-12-03T06:40:46.664Z,78.80
2022-12-03T06:41:46.680Z,77.65
2022-12-03T06:42:46.643Z,77.96
2022-12-03T06:43:46.621Z,77.96
2022-12-03T06:44:46.628Z,77.86
2022-12-03T06:45:48.071Z,77.51
2022-12-03T06:46:46.837Z,77.83
2022-12-03T06:47:46.593Z,78.24
2022-12-03T06:48:46.554Z,77.30
2022-12-03T06:49:46.542Z,77.79
2022-12-03T06:50:46.537Z,77.27
2022-12-03T06:51:46.518Z,77.06
2022-12-03T06:52:46.562Z,76.54
2022-12-03T06:53:46.509Z,76.78
2022-12-03T06:54:46.486Z,76.82
2022-12-03T06:55:46.480Z,77.34
2022-12-03T06:56:46.479Z,77.75
2022-12-03T06:57:46.453Z,77.83
2022-12-03T06:58:46.463Z,77.51
2022-12-03T06:59:46.460Z,77.20
2022-12-03T07:00:46.447Z,77.40
2022-12-03T07:01:46.554Z,76.68
2022-12-03T07:02:46.449Z,76.54
2022-12-03T07:03:46.390Z,76.54
2022-12-03T07:04:46.687Z,76.57
2022-12-03T07:05:46.403Z,76.89
2022-12-03T07:06:46.357Z,76.99
2022-12-03T07:07:46.419Z,76.72
2022-12-03T07:08:46.351Z,77.44
2022-12-03T07:09:46.324Z,77.55
2022-12-03T07:10:46.342Z,77.34
2022-12-03T07:11:46.333Z,77.86
2022-12-03T07:12:46.292Z,77.93
2022-12-03T07:13:46.326Z,77.61
2022-12-03T07:14:46.297Z,77.48
2022-12-03T07:15:46.403Z,77.37
2022-12-03T07:16:46.253Z,76.85
2022-12-03T07:17:46.272Z,76.64
2022-12-03T07:18:46.227Z,76.54
2022-12-03T07:19:46.227Z,76.75
2022-12-03T07:20:46.205Z,76.54
2022-12-03T07:21:46.229Z,76.64
2022-12-03T07:22:46.184Z,76.64
2022-12-03T07:23:46.188Z,76.43
2022-12-03T07:24:46.161Z,76.40
2022-12-03T07:25:46.177Z,76.61
2022-12-03T07:26:46.140Z,75.67
2022-12-03T07:27:46.151Z,75.46
2022-12-03T07:28:46.120Z,75.46
2022-12-03T07:29:46.122Z,75.71
2022-12-03T07:30:46.097Z,75.71
2022-12-03T07:31:46.229Z,75.60
2022-12-03T07:32:46.109Z,76.12
2022-12-03T07:33:46.090Z,75.98
2022-12-03T07:34:46.057Z,75.71
2022-12-03T07:35:46.056Z,75.92
2022-12-03T07:36:46.037Z,75.74
2022-12-03T07:37:46.048Z,76.47
2022-12-03T07:38:46.010Z,76.68
2022-12-03T07:39:45.998Z,76.89
2022-12-03T07:40:45.993Z,77.58
2022-12-03T07:41:46.027Z,77.86
2022-12-03T07:42:45.971Z,77.83
2022-12-03T07:43:45.986Z,77.61
2022-12-03T07:44:45.949Z,77.20
2022-12-03T07:45:45.934Z,76.78
2022-12-03T07:46:46.066Z,77.34
2022-12-03T07:47:45.936Z,77.23
2022-12-03T07:48:45.907Z,77.13
2022-12-03T07:49:45.901Z,77.86
2022-12-03T07:50:45.915Z,77.89
2022-12-03T07:51:45.872Z,78.31
2022-12-03T07:52:45.875Z,78.94
2022-12-03T07:53:45.894Z,78.63
2022-12-03T07:54:45.848Z,78.52
2022-12-03T07:55:45.869Z,78.73
2022-12-03T07:56:45.817Z,78.69
2022-12-03T07:57:45.807Z,78.59
2022-12-03T07:58:45.806Z,78.69
2022-12-03T07:59:45.796Z,78.20
2022-12-03T08:00:45.853Z,78.69
2022-12-03T08:01:45.829Z,78.28
2022-12-03T08:02:45.786Z,78.49
2022-12-03T08:03:45.754Z,77.72
2022-12-03T08:04:45.743Z,77.83
2022-12-03T08:05:45.737Z,77.72
2022-12-03T08:06:45.732Z,77.51
2022-12-03T08:07:45.760Z,77.61
2022-12-03T08:08:45.685Z,76.99
2022-12-03T08:09:45.674Z,76.99
2022-12-03T08:10:45.692Z,76.99
2022-12-03T08:11:45.680Z,76.99
2022-12-03T08:12:45.671Z,77.83
2022-12-03T08:13:45.631Z,77.44
2022-12-03T08:14:45.623Z,77.93
2022-12-03T08:15:45.607Z,77.72
2022-12-03T08:16:45.699Z,77.83
2022-12-03T08:17:45.633Z,77.61
2022-12-03T08:18:45.589Z,77.40
2022-12-03T08:19:45.582Z,77.16
2022-12-03T08:20:45.560Z,76.78
2022-12-03T08:21:45.569Z,77.75
2022-12-03T08:22:45.532Z,77.51
2022-12-03T08:23:45.564Z,77.65
2022-12-03T08:24:45.519Z,78.45
2022-12-03T08:25:45.500Z,77.93
2022-12-03T08:26:45.493Z,77.58
2022-12-03T08:27:45.484Z,77.72
2022-12-03T08:28:45.490Z,77.20
2022-12-03T08:29:45.509Z,77.72
2022-12-03T08:30:45.461Z,77.72
2022-12-03T08:31:45.483Z,77.72
2022-12-03T08:32:45.426Z,77.83
2022-12-03T08:33:45.429Z,77.30
2022-12-03T08:34:45.403Z,77.20
2022-12-03T08:35:45.439Z,77.83
2022-12-03T08:36:45.400Z,77.69
2022-12-03T08:37:45.371Z,77.27
2022-12-03T08:38:45.364Z,77.16
2022-12-03T08:39:45.358Z,77.20
2022-12-03T08:40:45.372Z,77.09
2022-12-03T08:41:45.326Z,77.72
2022-12-03T08:42:45.345Z,77.61
2022-12-03T08:43:45.303Z,78.14
2022-12-03T08:44:45.325Z,78.10
2022-12-03T08:45:45.473Z,77.69
2022-12-03T08:46:45.273Z,77.89
2022-12-03T08:47:45.294Z,77.48
2022-12-03T08:48:48.761Z,77.58
2022-12-03T08:49:45.241Z,77.09
2022-12-03T08:50:45.228Z,77.79
2022-12-03T08:51:46.178Z,77.03
2022-12-03T08:52:45.261Z,77.06
2022-12-03T08:53:45.206Z,77.16
2022-12-03T08:54:45.184Z,76.72
2022-12-03T08:55:45.194Z,76.82
2022-12-03T08:56:45.175Z,76.72
2022-12-03T08:57:45.152Z,75.88
2022-12-03T08:58:45.144Z,76.64
2022-12-03T08:59:45.817Z,76.54
2022-12-03T09:00:45.218Z,77.03
2022-12-03T09:01:45.172Z,76.82
2022-12-03T09:02:45.099Z,76.68
2022-12-03T09:03:45.135Z,76.72
2022-12-03T09:04:45.112Z,76.72
2022-12-03T09:05:45.093Z,76.72
2022-12-03T09:06:45.081Z,76.72
2022-12-03T09:07:45.120Z,75.78
2022-12-03T09:08:45.041Z,76.61
2022-12-03T09:09:45.024Z,76.61
2022-12-03T09:10:45.028Z,76.68
2022-12-03T09:11:45.022Z,76.89
2022-12-03T09:12:45.020Z,76.06
2022-12-03T09:13:44.981Z,75.85
2022-12-03T09:14:44.973Z,75.71
2022-12-03T09:15:44.967Z,75.19
2022-12-03T09:16:45.063Z,74.80
2022-12-03T09:17:44.970Z,75.15
2022-12-03T09:18:44.931Z,75.78
2022-12-03T09:19:46.251Z,75.46
2022-12-03T09:20:44.913Z,75.78
2022-12-03T09:21:44.894Z,75.46
2022-12-03T09:22:44.939Z,75.26
2022-12-03T09:23:44.893Z,75.67
2022-12-03T09:24:44.864Z,75.71
2022-12-03T09:25:44.853Z,76.61
2022-12-03T09:26:44.851Z,76.61
2022-12-03T09:27:44.831Z,76.61
2022-12-03T09:28:44.853Z,76.82
2022-12-03T09:29:44.808Z,75.36
2022-12-03T09:30:44.797Z,75.40
2022-12-03T09:31:44.870Z,76.75
2022-12-03T09:32:44.804Z,76.54
2022-12-03T09:33:44.773Z,76.64
2022-12-03T09:34:44.777Z,76.72
2022-12-03T09:35:44.746Z,76.68
2022-12-03T09:36:44.741Z,76.09
2022-12-03T09:37:44.759Z,76.06
2022-12-03T09:38:47.951Z,75.32
2022-12-03T09:39:44.751Z,75.26
2022-12-03T09:40:44.708Z,75.12
2022-12-03T09:41:44.696Z,75.50
2022-12-03T09:42:44.669Z,76.51
2022-12-03T09:44:03.487Z,76.54
2022-12-03T09:44:45.672Z,76.54
2022-12-03T09:45:44.699Z,76.64
2022-12-03T09:46:44.629Z,76.64
2022-12-03T09:47:44.657Z,76.64
2022-12-03T09:48:44.604Z,76.33
2022-12-03T09:49:44.663Z,76.85
2022-12-03T09:50:44.588Z,76.64
2022-12-03T09:51:44.570Z,76.92
2022-12-03T09:52:44.607Z,77.23
2022-12-03T09:53:44.550Z,76.72
2022-12-03T09:54:47.539Z,76.78
2022-12-03T09:55:44.580Z,76.51
2022-12-03T09:56:44.558Z,76.47
2022-12-03T09:57:44.508Z,75.98
2022-12-03T09:58:44.563Z,76.51
2022-12-03T09:59:44.487Z,75.78
2022-12-03T10:00:44.473Z,76.92
2022-12-03T10:01:44.583Z,76.47
2022-12-03T10:02:44.456Z,76.57
2022-12-03T10:03:44.447Z,76.47
2022-12-03T10:04:44.525Z,76.57
2022-12-03T10:05:48.056Z,76.57
2022-12-03T10:06:46.277Z,76.85
2022-12-03T10:07:44.458Z,75.71
2022-12-03T10:08:44.389Z,75.81
2022-12-03T10:09:44.418Z,75.50
2022-12-03T10:10:44.402Z,75.40
2022-12-03T10:11:44.376Z,75.29
2022-12-03T10:12:44.353Z,75.09
2022-12-03T10:13:44.356Z,75.50
2022-12-03T10:14:44.351Z,75.09
2022-12-03T10:15:44.333Z,74.57
2022-12-03T10:16:44.368Z,75.09
2022-12-03T10:17:44.291Z,75.19
2022-12-03T10:18:44.310Z,75.19
2022-12-03T10:19:44.289Z,75.09
2022-12-03T10:20:44.259Z,75.71
2022-12-03T10:21:44.261Z,75.19
2022-12-03T10:22:44.264Z,75.26
2022-12-03T10:23:44.230Z,74.67
2022-12-03T10:24:44.246Z,74.63
2022-12-03T10:25:44.215Z,74.77
2022-12-03T10:26:44.232Z,75.19
2022-12-03T10:27:44.210Z,75.26
2022-12-03T10:28:44.227Z,74.57
2022-12-03T10:29:44.162Z,74.95
2022-12-03T10:30:44.207Z,74.36
2022-12-03T10:31:44.171Z,75.09
2022-12-03T10:32:44.127Z,75.19
2022-12-03T10:33:44.142Z,75.46
2022-12-03T10:34:44.139Z,75.05
2022-12-03T10:35:44.095Z,75.15
2022-12-03T10:36:44.087Z,74.84
2022-12-03T10:37:44.078Z,74.84
2022-12-03T10:38:44.100Z,74.84
2022-12-03T10:39:44.061Z,74.95
2022-12-03T10:40:44.105Z,74.95
2022-12-03T10:41:44.032Z,74.40
2022-12-03T10:42:44.021Z,75.05
2022-12-03T10:43:44.059Z,74.63
2022-12-03T10:44:44.003Z,74.46
2022-12-03T10:45:44.086Z,74.74
2022-12-03T10:46:44.210Z,74.63
2022-12-03T10:47:44.071Z,74.74
2022-12-03T10:48:43.977Z,75.29
2022-12-03T10:49:43.940Z,75.19
2022-12-03T10:50:43.941Z,74.95
2022-12-03T10:51:43.937Z,75.15
2022-12-03T10:52:43.951Z,75.15
2022-12-03T10:53:43.928Z,74.50
2022-12-03T10:54:43.901Z,74.29
2022-12-03T10:55:43.886Z,74.29
2022-12-03T10:56:43.898Z,74.29
2022-12-03T10:57:46.114Z,74.60
2022-12-03T10:58:43.897Z,74.57
2022-12-03T10:59:43.896Z,73.98
2022-12-03T11:00:43.824Z,75.12
2022-12-03T11:01:43.882Z,74.32
2022-12-03T11:02:43.802Z,74.32
2022-12-03T11:03:43.890Z,74.53
2022-12-03T11:04:43.827Z,74.63
2022-12-03T11:05:43.768Z,74.63
2022-12-03T11:06:43.754Z,74.60
2022-12-03T11:07:43.806Z,74.60
2022-12-03T11:08:43.765Z,74.81
2022-12-03T11:09:43.745Z,74.81
2022-12-03T11:10:43.730Z,74.91
2022-12-03T11:11:43.704Z,74.57
2022-12-03T11:12:43.702Z,74.05
2022-12-03T11:13:43.729Z,73.84
2022-12-03T11:14:43.680Z,73.88
2022-12-03T11:15:43.783Z,73.63
2022-12-03T11:16:43.659Z,74.60
2022-12-03T11:17:43.667Z,74.29
2022-12-03T11:18:43.636Z,75.36
2022-12-03T11:19:43.642Z,75.26
2022-12-03T11:20:43.619Z,75.02
2022-12-03T11:21:43.733Z,75.29
2022-12-03T11:22:43.609Z,74.91
2022-12-03T11:23:43.577Z,74.71
2022-12-03T11:24:43.590Z,74.67
2022-12-03T11:25:43.568Z,74.81
2022-12-03T11:26:43.585Z,74.40
2022-12-03T11:27:43.524Z,74.50
2022-12-03T11:28:43.516Z,74.15
2022-12-03T11:29:43.530Z,73.88
2022-12-03T11:30:43.539Z,74.19
2022-12-03T11:31:43.635Z,74.29
2022-12-03T11:32:43.506Z,74.95
2022-12-03T11:33:43.471Z,74.95
2022-12-03T11:34:43.448Z,75.02
2022-12-03T11:35:43.438Z,75.12
2022-12-03T11:37:01.034Z,74.91
2022-12-03T11:37:43.438Z,75.23
2022-12-03T11:38:48.854Z,75.15
2022-12-03T11:39:44.418Z,75.26
2022-12-03T11:40:43.401Z,75.67
2022-12-03T11:41:43.466Z,75.02
2022-12-03T11:42:43.379Z,74.95
2022-12-03T11:43:43.367Z,75.05
2022-12-03T11:44:43.342Z,75.02
2022-12-03T11:45:43.380Z,75.02
2022-12-03T11:46:43.391Z,74.98
2022-12-03T11:47:43.354Z,75.29
2022-12-03T11:48:43.318Z,74.77
2022-12-03T11:49:43.345Z,74.57
2022-12-03T11:50:43.307Z,74.46
2022-12-03T11:51:43.280Z,74.46
2022-12-03T11:52:43.629Z,74.36
2022-12-03T11:53:43.255Z,74.36
2022-12-03T11:54:43.237Z,74.46
2022-12-03T11:55:43.227Z,74.60
2022-12-03T11:56:43.232Z,74.57
2022-12-03T11:57:43.260Z,74.57
2022-12-03T11:58:43.211Z,74.40
2022-12-03T11:59:43.237Z,74.81
2022-12-03T12:00:43.172Z,75.09
2022-12-03T12:01:43.217Z,74.67
2022-12-03T12:02:43.206Z,74.46
2022-12-03T12:03:43.376Z,74.46
2022-12-03T12:04:43.166Z,74.57
2022-12-03T12:05:43.125Z,74.57
2022-12-03T12:06:43.116Z,75.19
2022-12-03T12:07:43.114Z,73.53
2022-12-03T12:08:43.106Z,73.94
2022-12-03T12:09:43.084Z,74.36
2022-12-03T12:10:43.054Z,74.36
2022-12-03T12:11:43.042Z,74.08
2022-12-03T12:12:48.985Z,74.63
2022-12-03T12:13:43.055Z,75.67
2022-12-03T12:14:43.011Z,75.57
2022-12-03T12:15:43.047Z,75.57
2022-12-03T12:16:43.120Z,75.46
2022-12-03T12:17:43.012Z,75.74
2022-12-03T12:18:42.990Z,75.02
2022-12-03T12:19:43.013Z,75.12
2022-12-03T12:20:42.965Z,74.98
2022-12-03T12:21:43.065Z,74.98
2022-12-03T12:22:42.921Z,75.09
2022-12-03T12:23:42.941Z,75.19
2022-12-03T12:24:42.953Z,74.88
2022-12-03T12:25:42.935Z,74.98
2022-12-03T12:26:42.930Z,74.81
2022-12-03T12:27:42.933Z,75.33
2022-12-03T12:28:42.874Z,74.98
2022-12-03T12:29:42.853Z,75.09
2022-12-03T12:30:42.843Z,75.19
2022-12-03T12:31:42.925Z,74.88
2022-12-03T12:32:42.876Z,74.46
2022-12-03T12:33:42.875Z,74.98
2022-12-03T12:34:42.817Z,75.09
2022-12-03T12:35:42.801Z,75.19
2022-12-03T12:36:42.784Z,74.63
2022-12-03T12:37:47.195Z,75.26
2022-12-03T12:38:42.813Z,74.53
2022-12-03T12:39:42.776Z,74.46
2022-12-03T12:40:42.723Z,74.57
2022-12-03T12:41:42.730Z,74.50
2022-12-03T12:42:42.718Z,75.23
2022-12-03T12:43:42.750Z,75.46
2022-12-03T12:44:42.717Z,75.78
2022-12-03T12:45:42.703Z,75.57
2022-12-03T12:46:49.916Z,76.61
2022-12-03T12:47:43.781Z,76.40
2022-12-03T12:48:42.656Z,76.99
2022-12-03T12:49:48.663Z,76.61
2022-12-03T12:50:43.616Z,75.46
2022-12-03T12:51:42.688Z,75.67
2022-12-03T12:52:42.609Z,75.78